Time;durP1;ratioP1;P1;durP2;ratioP2;P2;SDS_P1;SDS_P2;PMS_P1;PMS_P2;Temp;Humidity;BMP_temperature;BMP_pressure;BME280_temperature;BME280_humidity;BME280_pressure;Samples;Min_cycle;Max_cycle;Signal;HPM_P1;HPM_P2
2021/05/04 00:01:47;;;;;;;4.67;3.03;;;11.40;66.60;;;;;;5053424;28;20305;-69
2021/05/04 00:04:12;;;;;;;3.20;2.90;;;11.40;67.00;;;;;;5018987;28;20465;-68
2021/05/04 00:06:38;;;;;;;2.90;2.53;;;11.50;66.70;;;;;;5053163;28;20219;-68
2021/05/04 00:09:05;;;;;;;3.20;2.70;;;11.40;66.60;;;;;;5019734;28;20219;-69
2021/05/04 00:11:31;;;;;;;2.50;2.30;;;11.40;66.60;;;;;;5020124;28;20227;-68
2021/05/04 00:13:57;;;;;;;3.10;2.37;;;11.40;66.60;;;;;;5053040;28;20462;-68
2021/05/04 00:16:23;;;;;;;2.60;2.40;;;11.30;66.50;;;;;;5038466;28;20442;-68
2021/05/04 00:18:48;;;;;;;2.60;2.33;;;11.20;66.50;;;;;;5036035;28;20223;-68
2021/05/04 00:21:14;;;;;;;3.47;2.70;;;11.10;66.40;;;;;;5052390;28;20648;-69
2021/05/04 00:23:40;;;;;;;2.33;2.13;;;11.20;66.60;;;;;;5052528;28;20590;-69
2021/05/04 00:26:07;;;;;;;3.40;2.73;;;11.10;66.60;;;;;;5019337;28;20265;-68
2021/05/04 00:28:33;;;;;;;3.27;2.63;;;11.10;66.70;;;;;;5036058;28;20226;-68
2021/05/04 00:30:59;;;;;;;5.57;2.50;;;11.10;66.70;;;;;;5030317;28;20471;-69
2021/05/04 00:33:25;;;;;;;3.10;2.80;;;11.10;66.60;;;;;;5007848;28;20223;-69
2021/05/04 00:35:51;;;;;;;3.13;2.43;;;11.10;66.60;;;;;;5038938;28;20227;-69
2021/05/04 00:38:17;;;;;;;4.73;2.87;;;11.10;66.70;;;;;;5050832;28;20254;-69
2021/05/04 00:40:43;;;;;;;4.17;2.80;;;11.10;66.70;;;;;;5052624;28;20448;-71
2021/05/04 00:43:09;;;;;;;2.93;2.60;;;11.00;66.70;;;;;;5035577;28;20827;-69
2021/05/04 00:45:34;;;;;;;3.20;2.30;;;11.10;66.80;;;;;;5019117;28;20219;-69
2021/05/04 00:48:00;;;;;;;3.10;2.30;;;11.00;66.70;;;;;;5019249;28;20227;-68
2021/05/04 00:50:26;;;;;;;2.77;2.10;;;11.00;66.60;;;;;;5051560;28;20229;-68
2021/05/04 00:52:52;;;;;;;3.00;2.43;;;11.00;66.70;;;;;;5035511;28;20322;-69
2021/05/04 00:55:19;;;;;;;2.43;2.20;;;11.00;66.80;;;;;;5061378;28;20253;-69
2021/05/04 00:57:47;;;;;;;2.43;2.23;;;11.00;66.80;;;;;;5079169;28;20469;-69
2021/05/04 01:00:13;;;;;;;5.20;2.60;;;11.10;66.80;;;;;;5034869;28;20453;-69
2021/05/04 01:02:40;;;;;;;3.13;2.60;;;11.10;66.90;;;;;;5060593;28;20458;-68
2021/05/04 01:05:08;;;;;;;2.53;2.30;;;11.00;66.80;;;;;;5040660;28;20455;-69
2021/05/04 01:07:34;;;;;;;4.37;2.67;;;11.00;66.90;;;;;;5033179;28;20813;-69
2021/05/04 01:10:00;;;;;;;4.53;2.80;;;10.90;67.10;;;;;;5050647;28;20972;-69
2021/05/04 01:12:26;;;;;;;3.53;2.20;;;10.90;67.20;;;;;;5058631;28;20444;-71
2021/05/04 01:14:51;;;;;;;2.30;1.83;;;10.90;67.30;;;;;;5045533;28;20223;-71
2021/05/04 01:17:17;;;;;;;2.83;2.13;;;10.90;67.20;;;;;;5062253;28;20250;-70
2021/05/04 01:19:43;;;;;;;3.50;2.33;;;10.90;67.30;;;;;;5062509;28;20211;-71
2021/05/04 01:22:09;;;;;;;3.20;2.60;;;10.90;67.30;;;;;;5026906;28;20696;-69
2021/05/04 01:24:34;;;;;;;2.50;2.23;;;10.90;67.40;;;;;;5029149;28;20571;-69
2021/05/04 01:27:00;;;;;;;2.93;2.17;;;10.80;67.50;;;;;;5019042;28;20323;-68
2021/05/04 01:29:26;;;;;;;2.37;2.20;;;10.80;67.60;;;;;;5034117;28;20207;-69
2021/05/04 01:31:53;;;;;;;4.37;2.87;;;10.80;67.80;;;;;;5033381;28;20215;-68
2021/05/04 01:34:19;;;;;;;2.67;2.43;;;10.80;68.00;;;;;;5034116;28;20466;-69
2021/05/04 01:36:45;;;;;;;2.30;2.00;;;10.80;68.20;;;;;;5045967;28;20985;-68
2021/05/04 01:39:11;;;;;;;2.67;2.30;;;10.80;68.30;;;;;;5061068;28;20455;-69
2021/05/04 01:41:38;;;;;;;3.87;3.10;;;10.80;68.40;;;;;;5063117;28;20227;-69
2021/05/04 01:44:06;;;;;;;1.77;1.67;;;10.80;69.20;;;;;;5066632;28;20453;-68
2021/05/04 01:46:32;;;;;;;3.00;2.23;;;10.80;68.30;;;;;;5059562;28;20484;-69
2021/05/04 01:49:06;;;;;;;2.27;2.07;;;10.80;68.40;;;;;;5027659;28;20516;-70
2021/05/04 01:51:32;;;;;;;2.10;1.80;;;10.90;68.60;;;;;;5031097;28;20546;-68
2021/05/04 01:53:58;;;;;;;2.10;1.90;;;10.90;68.70;;;;;;5036185;28;20454;-68
2021/05/04 01:56:25;;;;;;;2.63;2.20;;;10.80;68.70;;;;;;5092777;28;20449;-68
2021/05/04 01:58:51;;;;;;;2.63;2.43;;;10.80;68.80;;;;;;5043064;28;20831;-68
2021/05/04 02:01:17;;;;;;;2.80;2.10;;;10.80;68.80;;;;;;5070949;28;20454;-69
2021/05/04 02:03:43;;;;;;;2.53;2.10;;;10.90;69.00;;;;;;5069520;28;20465;-68
2021/05/04 02:06:09;;;;;;;4.77;2.30;;;10.90;69.10;;;;;;5040278;28;20226;-68
2021/05/04 02:08:35;;;;;;;2.80;2.27;;;10.90;69.20;;;;;;5023631;28;20483;-68
2021/05/04 02:11:01;;;;;;;1.73;1.63;;;10.90;69.20;;;;;;5055614;28;20449;-68
2021/05/04 02:13:27;;;;;;;5.43;2.27;;;10.90;69.20;;;;;;5038799;28;20294;-68
2021/05/04 02:15:53;;;;;;;3.57;1.97;;;10.90;69.40;;;;;;5067860;28;20541;-68
2021/05/04 02:18:19;;;;;;;2.57;2.37;;;10.90;69.50;;;;;;5072005;28;20242;-68
2021/05/04 02:20:44;;;;;;;3.33;2.67;;;10.90;69.70;;;;;;5053920;28;20223;-69
2021/05/04 02:23:10;;;;;;;2.67;2.47;;;10.90;70.00;;;;;;5036807;28;20227;-69
2021/05/04 02:25:36;;;;;;;2.03;1.83;;;10.90;69.90;;;;;;5037819;28;20680;-68
2021/05/04 02:28:05;;;;;;;2.50;2.27;;;10.90;70.10;;;;;;5054661;28;20223;-68
2021/05/04 02:30:34;;;;;;;3.47;2.23;;;10.90;70.10;;;;;;5053250;28;20722;-69
2021/05/04 02:33:01;;;;;;;2.77;1.90;;;10.90;70.20;;;;;;5029518;28;20465;-68
2021/05/04 02:35:27;;;;;;;2.03;1.87;;;10.90;70.30;;;;;;5049927;28;20465;-69
2021/05/04 02:37:53;;;;;;;4.20;1.60;;;10.90;70.40;;;;;;5038356;28;20479;-68
2021/05/04 02:40:19;;;;;;;3.10;2.23;;;10.90;70.50;;;;;;5035234;28;20461;-69
2021/05/04 02:42:45;;;;;;;2.90;2.30;;;10.90;70.50;;;;;;5030151;28;20348;-71
2021/05/04 02:45:11;;;;;;;2.63;2.40;;;10.90;70.80;;;;;;5021813;28;20544;-68
2021/05/04 02:47:37;;;;;;;3.50;2.40;;;10.90;70.60;;;;;;5029941;28;20222;-68
2021/05/04 02:50:03;;;;;;;2.40;2.10;;;11.00;71.20;;;;;;5037619;28;20453;-69
2021/05/04 02:52:29;;;;;;;6.07;2.50;;;10.90;71.40;;;;;;5024866;28;20219;-68
2021/05/04 02:54:55;;;;;;;2.70;2.20;;;11.00;71.60;;;;;;5018400;28;20446;-72
2021/05/04 02:57:21;;;;;;;2.60;2.30;;;10.90;71.60;;;;;;5063374;28;20297;-68
2021/05/04 02:59:46;;;;;;;3.37;2.67;;;11.00;71.90;;;;;;5029299;28;20267;-69
2021/05/04 03:02:13;;;;;;;4.80;3.37;;;10.90;71.80;;;;;;5040025;28;20230;-68
2021/05/04 03:04:40;;;;;;;2.17;2.07;;;11.00;72.00;;;;;;5047942;28;20241;-68
2021/05/04 03:07:06;;;;;;;2.43;2.03;;;11.00;72.10;;;;;;5042919;28;20462;-69
2021/05/04 03:09:32;;;;;;;2.50;1.83;;;11.00;72.10;;;;;;5076979;28;20528;-68
2021/05/04 03:11:58;;;;;;;3.80;2.40;;;11.00;71.90;;;;;;5038227;28;20580;-68
2021/05/04 03:14:24;;;;;;;3.00;2.57;;;11.00;72.30;;;;;;5065746;28;20527;-68
2021/05/04 03:16:51;;;;;;;2.10;2.00;;;11.00;72.20;;;;;;5051226;28;20299;-68
2021/05/04 03:19:16;;;;;;;3.83;2.63;;;11.00;72.30;;;;;;5050576;28;20834;-68
2021/05/04 03:21:42;;;;;;;4.00;2.70;;;11.00;72.50;;;;;;5085730;28;20493;-68
2021/05/04 03:24:08;;;;;;;3.03;2.47;;;11.00;72.50;;;;;;5057106;28;20223;-71
2021/05/04 03:26:34;;;;;;;2.63;2.20;;;11.00;72.30;;;;;;5047897;28;20218;-70
2021/05/04 03:28:59;;;;;;;3.37;2.33;;;11.10;72.90;;;;;;5037872;28;20525;-69
2021/05/04 03:31:25;;;;;;;2.70;2.50;;;11.10;72.90;;;;;;5056692;28;20638;-71
2021/05/04 03:33:51;;;;;;;1.90;1.80;;;11.10;72.70;;;;;;5049658;28;20705;-69
2021/05/04 03:36:17;;;;;;;3.30;2.30;;;11.10;72.70;;;;;;5057279;28;20223;-69
2021/05/04 03:38:42;;;;;;;3.40;2.37;;;11.10;73.00;;;;;;5051257;28;20643;-69
2021/05/04 03:41:09;;;;;;;2.63;2.40;;;11.10;73.50;;;;;;5079532;28;20234;-70
2021/05/04 03:43:34;;;;;;;3.00;2.63;;;11.10;73.00;;;;;;5070994;28;20450;-69
2021/05/04 03:46:00;;;;;;;2.73;2.33;;;11.10;73.20;;;;;;5037571;28;20949;-69
2021/05/04 03:48:26;;;;;;;2.90;2.50;;;11.10;73.10;;;;;;5077704;28;20306;-70
2021/05/04 03:50:51;;;;;;;4.27;2.43;;;11.10;73.20;;;;;;5085422;28;20223;-69
2021/05/04 03:53:17;;;;;;;4.30;2.50;;;11.10;74.20;;;;;;5036721;28;20223;-69
2021/05/04 03:55:44;;;;;;;3.10;2.60;;;11.10;73.20;;;;;;5075965;28;20456;-70
2021/05/04 03:58:10;;;;;;;3.00;2.63;;;11.10;73.30;;;;;;5058460;28;20279;-69
2021/05/04 04:00:36;;;;;;;3.83;2.70;;;11.10;73.20;;;;;;5052894;28;20568;-69
2021/05/04 04:03:02;;;;;;;3.70;2.33;;;11.10;73.10;;;;;;5068256;28;20230;-68
2021/05/04 04:05:27;;;;;;;2.10;1.90;;;11.10;72.90;;;;;;5053551;28;20215;-70
2021/05/04 04:07:53;;;;;;;1.90;1.80;;;11.10;73.70;;;;;;5053371;28;20242;-69
2021/05/04 04:10:19;;;;;;;2.60;2.40;;;11.10;72.70;;;;;;5071325;28;20310;-69
2021/05/04 04:12:44;;;;;;;3.50;2.23;;;11.20;72.90;;;;;;5059307;28;20597;-68
2021/05/04 04:15:10;;;;;;;3.50;2.13;;;11.20;72.80;;;;;;5057053;28;20241;-69
2021/05/04 04:17:37;;;;;;;1.90;1.80;;;11.20;72.70;;;;;;5078275;28;20703;-69
2021/05/04 04:20:04;;;;;;;2.43;2.23;;;11.20;72.80;;;;;;5035926;28;20460;-68
2021/05/04 04:22:30;;;;;;;3.50;2.50;;;11.20;72.60;;;;;;5069766;28;20678;-69
2021/05/04 04:24:56;;;;;;;3.50;2.40;;;11.20;72.50;;;;;;5055978;28;20460;-70
2021/05/04 04:27:22;;;;;;;4.40;3.00;;;11.20;72.50;;;;;;5066747;28;20230;-69
2021/05/04 04:29:48;;;;;;;5.00;3.40;;;11.20;72.50;;;;;;5084631;28;20621;-69
2021/05/04 04:32:14;;;;;;;3.90;2.97;;;11.20;72.60;;;;;;5060199;28;20483;-69
2021/05/04 04:34:40;;;;;;;3.50;2.40;;;11.30;72.70;;;;;;5050321;28;20975;-70
2021/05/04 04:37:05;;;;;;;2.20;2.00;;;11.30;72.60;;;;;;5055977;28;20283;-70
2021/05/04 04:39:31;;;;;;;4.20;2.67;;;11.30;72.30;;;;;;5034496;28;20223;-69
2021/05/04 04:41:58;;;;;;;4.13;3.33;;;11.30;72.30;;;;;;5006912;28;20212;-69
2021/05/04 04:44:24;;;;;;;2.77;2.33;;;11.30;72.50;;;;;;5019614;28;20216;-70
2021/05/04 04:46:50;;;;;;;4.90;3.23;;;11.30;72.50;;;;;;5032056;28;20454;-69
2021/05/04 04:49:17;;;;;;;3.77;2.90;;;11.30;72.50;;;;;;5062459;28;20231;-69
2021/05/04 04:51:45;;;;;;;4.63;2.63;;;11.30;72.50;;;;;;5083163;28;20223;-69
2021/05/04 04:54:11;;;;;;;2.67;2.47;;;11.30;72.70;;;;;;5036268;28;21041;-70
2021/05/04 04:56:37;;;;;;;4.47;2.70;;;11.30;72.50;;;;;;5069877;28;20461;-69
2021/05/04 04:59:04;;;;;;;3.20;2.83;;;11.30;72.50;;;;;;5065480;28;20448;-70
2021/05/04 05:01:30;;;;;;;4.60;3.23;;;11.30;72.40;;;;;;5056063;28;20814;-70
2021/05/04 05:03:56;;;;;;;4.43;2.50;;;11.30;72.40;;;;;;5047568;28;20453;-70
2021/05/04 05:06:21;;;;;;;2.50;2.30;;;11.30;72.00;;;;;;5047694;28;20265;-70
2021/05/04 05:08:51;;;;;;;2.97;2.53;;;11.30;72.10;;;;;;5045355;28;20223;-69
2021/05/04 05:11:18;;;;;;;3.30;2.53;;;11.40;72.00;;;;;;5032071;28;20299;-70
2021/05/04 05:13:44;;;;;;;2.40;2.20;;;11.40;72.00;;;;;;5032536;28;20449;-69
2021/05/04 05:16:11;;;;;;;3.50;2.10;;;11.40;72.00;;;;;;5083098;28;20824;-69
2021/05/04 05:18:37;;;;;;;3.17;2.27;;;11.40;72.10;;;;;;5035771;28;20450;-72
2021/05/04 05:21:03;;;;;;;4.17;2.60;;;11.40;71.80;;;;;;5035682;28;20540;-69
2021/05/04 05:23:28;;;;;;;3.53;2.53;;;11.40;71.90;;;;;;5023245;28;20243;-69
2021/05/04 05:25:54;;;;;;;4.10;2.60;;;11.40;71.90;;;;;;5063645;28;20207;-69
2021/05/04 05:28:20;;;;;;;2.70;2.50;;;11.40;71.90;;;;;;5069892;28;20290;-70
2021/05/04 05:30:45;;;;;;;4.07;2.00;;;11.40;72.00;;;;;;5051578;28;20230;-70
2021/05/04 05:33:11;;;;;;;2.47;2.10;;;11.40;72.10;;;;;;5080719;28;20221;-69
2021/05/04 05:35:37;;;;;;;3.63;2.33;;;11.40;72.00;;;;;;5060003;28;20215;-69
2021/05/04 05:38:05;;;;;;;3.00;2.00;;;11.40;71.80;;;;;;5076638;28;20210;-69
2021/05/04 05:40:31;;;;;;;2.57;2.37;;;11.40;71.80;;;;;;5070929;28;20243;-71
2021/05/04 05:42:57;;;;;;;2.50;2.30;;;11.40;71.70;;;;;;5055944;28;20530;-69
2021/05/04 05:45:23;;;;;;;5.03;3.27;;;11.50;72.00;;;;;;5075937;28;20939;-69
2021/05/04 05:47:49;;;;;;;2.30;1.87;;;11.50;71.90;;;;;;5076230;28;20506;-69
2021/05/04 05:50:15;;;;;;;1.83;1.73;;;11.50;71.70;;;;;;5030959;28;20479;-69
2021/05/04 05:52:41;;;;;;;2.60;2.30;;;11.50;71.70;;;;;;5060706;28;20215;-70
2021/05/04 05:55:07;;;;;;;2.27;2.13;;;11.50;71.60;;;;;;5039357;28;20233;-71
2021/05/04 05:57:32;;;;;;;3.70;2.40;;;11.50;71.50;;;;;;5028283;28;20298;-69
2021/05/04 05:59:58;;;;;;;3.13;2.60;;;11.50;71.30;;;;;;5102049;28;20524;-69
2021/05/04 06:02:24;;;;;;;3.73;2.30;;;11.50;71.10;;;;;;5054395;28;20211;-69
2021/05/04 06:04:51;;;;;;;2.90;2.50;;;11.50;71.10;;;;;;5061153;28;20215;-70
2021/05/04 06:07:17;;;;;;;2.90;2.50;;;11.50;70.90;;;;;;5057495;28;20231;-70
2021/05/04 06:09:43;;;;;;;3.00;2.40;;;11.60;70.90;;;;;;5051069;28;20448;-70
2021/05/04 06:12:09;;;;;;;2.30;2.10;;;11.60;70.60;;;;;;5058627;28;20472;-71
2021/05/04 06:14:34;;;;;;;3.33;2.10;;;11.60;70.60;;;;;;5071306;28;20215;-71
2021/05/04 06:17:00;;;;;;;2.80;1.77;;;11.60;70.20;;;;;;5030006;28;20218;-72
2021/05/04 06:19:26;;;;;;;3.80;2.03;;;11.60;70.00;;;;;;5093296;28;20655;-70
2021/05/04 06:21:51;;;;;;;2.30;2.10;;;11.60;69.40;;;;;;5049911;28;20238;-70
2021/05/04 06:24:17;;;;;;;2.13;1.70;;;11.70;69.70;;;;;;5049892;28;20649;-69
2021/05/04 06:26:43;;;;;;;4.60;2.40;;;11.70;69.40;;;;;;5031265;28;20223;-69
2021/05/04 06:29:08;;;;;;;3.77;1.67;;;11.70;69.30;;;;;;5039231;28;20565;-69
2021/05/04 06:31:35;;;;;;;2.60;2.13;;;11.70;69.50;;;;;;5075398;28;20279;-70
2021/05/04 06:34:03;;;;;;;3.37;1.93;;;11.70;70.50;;;;;;5067896;28;20215;-70
2021/05/04 06:36:28;;;;;;;2.37;1.33;;;11.80;70.80;;;;;;5080529;28;20449;-69
2021/05/04 06:38:54;;;;;;;2.57;1.80;;;11.80;71.60;;;;;;5064545;28;20543;-70
2021/05/04 06:41:20;;;;;;;2.10;1.70;;;11.80;72.50;;;;;;5068418;28;20220;-71
2021/05/04 06:43:45;;;;;;;1.50;1.40;;;11.80;73.20;;;;;;5077445;28;20215;-70
2021/05/04 06:46:11;;;;;;;1.50;1.40;;;11.80;73.30;;;;;;5049955;28;20219;-69
2021/05/04 06:48:37;;;;;;;2.60;1.70;;;11.80;72.80;;;;;;5075163;28;20774;-72
2021/05/04 06:51:03;;;;;;;1.67;1.43;;;11.80;73.10;;;;;;5056226;28;20222;-69
2021/05/04 06:53:29;;;;;;;3.33;1.37;;;11.80;74.30;;;;;;5097279;28;20214;-71
2021/05/04 06:55:54;;;;;;;1.43;1.30;;;11.80;76.00;;;;;;5035348;28;20243;-69
2021/05/04 06:58:20;;;;;;;2.93;1.23;;;11.70;76.40;;;;;;5086854;28;20301;-69
2021/05/04 07:00:46;;;;;;;1.97;1.50;;;11.70;76.70;;;;;;5045924;28;20268;-69
2021/05/04 07:03:11;;;;;;;1.50;1.20;;;11.60;76.00;;;;;;5055078;28;20321;-69
2021/05/04 07:05:37;;;;;;;1.70;1.60;;;11.50;75.20;;;;;;5051214;28;20226;-71
2021/05/04 07:08:03;;;;;;;1.60;1.40;;;11.40;76.90;;;;;;5033929;28;20306;-73
2021/05/04 07:10:29;;;;;;;2.30;1.67;;;11.40;78.70;;;;;;5067178;28;20211;-73
2021/05/04 07:12:55;;;;;;;2.03;1.30;;;11.30;78.80;;;;;;5065824;28;20462;-69
2021/05/04 07:15:21;;;;;;;1.73;1.63;;;11.30;79.60;;;;;;5038081;28;20306;-69
2021/05/04 07:17:47;;;;;;;2.00;0.90;;;11.30;80.90;;;;;;5021271;28;20471;-69
2021/05/04 07:20:18;;;;;;;3.53;1.53;;;11.30;81.80;;;;;;5036111;28;20246;-69
2021/05/04 07:22:44;;;;;;;1.30;1.00;;;11.30;83.70;;;;;;5053873;28;20481;-70
2021/05/04 07:25:10;;;;;;;1.93;1.40;;;11.30;84.70;;;;;;5037115;28;20474;-69
2021/05/04 07:27:36;;;;;;;2.20;1.60;;;11.40;85.50;;;;;;5037673;28;20250;-70
2021/05/04 07:30:03;;;;;;;0.97;0.90;;;11.20;85.40;;;;;;5044865;28;20450;-72
2021/05/04 07:32:29;;;;;;;1.30;1.20;;;11.10;86.60;;;;;;5057105;28;20226;-69
2021/05/04 07:34:54;;;;;;;1.73;1.63;;;11.10;86.80;;;;;;5041022;28;20460;-69
2021/05/04 07:37:20;;;;;;;2.10;1.30;;;11.00;87.30;;;;;;5087783;28;20219;-70
2021/05/04 07:39:52;;;;;;;3.10;1.40;;;11.00;87.90;;;;;;5046990;28;20762;-69
2021/05/04 07:42:18;;;;;;;1.90;1.50;;;11.00;87.90;;;;;;5055397;28;20219;-69
2021/05/04 07:44:44;;;;;;;1.17;1.07;;;11.00;88.40;;;;;;5082477;28;20449;-69
2021/05/04 07:47:09;;;;;;;1.57;1.20;;;11.00;88.50;;;;;;5056843;28;20223;-69
2021/05/04 07:49:44;;;;;;;2.17;1.47;;;10.90;90.00;;;;;;5084251;28;20227;-69
2021/05/04 07:52:11;;;;;;;1.53;1.43;;;10.80;89.90;;;;;;5059856;28;20248;-69
2021/05/04 07:54:37;;;;;;;1.90;1.70;;;10.80;90.10;;;;;;5071298;28;20453;-69
2021/05/04 07:57:03;;;;;;;1.37;1.27;;;10.80;90.30;;;;;;5068593;28;20540;-71
2021/05/04 07:59:29;;;;;;;2.37;1.83;;;10.80;90.10;;;;;;5048981;28;20315;-70
2021/05/04 08:02:08;;;;;;;1.23;1.03;;;10.80;90.20;;;;;;5093032;28;20450;-69
2021/05/04 08:04:34;;;;;;;1.93;1.40;;;10.80;90.10;;;;;;5010388;28;20745;-69
2021/05/04 08:07:03;;;;;;;1.73;1.50;;;10.90;90.10;;;;;;5083705;28;20454;-69
2021/05/04 08:09:29;;;;;;;1.80;1.17;;;10.80;89.90;;;;;;5074385;28;20365;-69
2021/05/04 08:11:55;;;;;;;1.70;1.60;;;10.80;90.10;;;;;;5023138;28;21103;-69
2021/05/04 08:14:22;;;;;;;2.30;1.67;;;10.80;90.00;;;;;;5062575;28;20229;-69
2021/05/04 08:16:49;;;;;;;3.30;1.37;;;10.80;90.00;;;;;;5037599;28;20985;-69
2021/05/04 08:19:14;;;;;;;1.97;1.70;;;10.70;90.00;;;;;;5063686;28;20522;-69
2021/05/04 08:21:43;;;;;;;2.20;1.43;;;10.70;90.00;;;;;;5073194;28;20460;-70
2021/05/04 08:24:10;;;;;;;1.37;1.03;;;10.80;90.00;;;;;;5058390;28;20269;-70
2021/05/04 08:26:36;;;;;;;1.30;1.20;;;10.80;90.20;;;;;;5076950;28;20473;-70
2021/05/04 08:29:02;;;;;;;1.33;1.23;;;10.80;90.10;;;;;;5035693;28;20484;-70
2021/05/04 08:31:27;;;;;;;1.57;1.10;;;10.80;90.30;;;;;;5055450;28;20919;-69
2021/05/04 08:33:53;;;;;;;1.37;1.27;;;10.80;90.40;;;;;;5056020;28;20215;-69
2021/05/04 08:36:30;;;;;;;2.67;0.97;;;10.80;90.40;;;;;;5087424;28;20239;-69
2021/05/04 08:38:56;;;;;;;1.40;1.30;;;10.90;90.60;;;;;;5053054;28;20218;-69
2021/05/04 08:41:23;;;;;;;1.30;1.20;;;10.90;90.70;;;;;;5075399;28;20467;-70
2021/05/04 08:43:50;;;;;;;2.60;1.33;;;10.90;90.90;;;;;;5055397;28;20454;-70
2021/05/04 08:46:16;;;;;;;1.20;1.10;;;10.90;90.70;;;;;;5058806;28;20973;-72
2021/05/04 08:48:43;;;;;;;1.57;1.17;;;10.90;91.20;;;;;;5051107;28;20862;-69
2021/05/04 08:51:10;;;;;;;1.37;1.13;;;11.00;91.20;;;;;;5082306;28;20855;-73
2021/05/04 08:53:36;;;;;;;1.20;1.00;;;10.90;91.60;;;;;;5058616;28;20470;-69
2021/05/04 08:56:02;;;;;;;1.30;1.17;;;11.00;91.70;;;;;;5068360;28;20473;-69
2021/05/04 08:58:30;;;;;;;1.60;1.17;;;11.00;91.70;;;;;;5078941;28;20445;-69
2021/05/04 09:00:56;;;;;;;2.10;1.50;;;11.00;91.80;;;;;;5066226;28;20453;-71
2021/05/04 09:03:34;;;;;;;0.97;0.97;;;11.00;92.10;;;;;;5042294;28;20475;-70
2021/05/04 09:17:09;;;;;;;1.40;1.20;;;11.10;92.80;;;;;;5075739;28;20433;-70
2021/05/04 09:19:40;;;;;;;1.43;1.13;;;11.00;92.50;;;;;;5013219;28;20552;-69
2021/05/04 09:22:06;;;;;;;1.00;1.00;;;11.10;92.60;;;;;;5054865;28;21304;-71
2021/05/04 09:24:44;;;;;;;1.03;1.03;;;11.10;92.60;;;;;;5009174;28;20456;-69
2021/05/04 09:27:19;;;;;;;1.53;1.33;;;11.10;92.90;;;;;;5065705;28;20366;-69
2021/05/04 09:29:53;;;;;;;1.47;1.37;;;11.10;93.00;;;;;;5042424;28;20469;-69
2021/05/04 09:32:23;;;;;;;2.97;1.43;;;11.10;93.10;;;;;;5022624;28;20638;-70
2021/05/04 09:34:53;;;;;;;1.40;1.30;;;11.10;93.10;;;;;;5023731;28;20502;-73
2021/05/04 09:37:26;;;;;;;1.47;1.27;;;11.10;93.30;;;;;;4994936;28;20501;-70
2021/05/04 09:39:53;;;;;;;3.73;1.57;;;11.10;93.20;;;;;;5011870;28;20462;-69
2021/05/04 09:42:18;;;;;;;1.70;1.40;;;11.20;93.20;;;;;;5009749;28;20858;-70
2021/05/04 09:44:47;;;;;;;1.53;1.43;;;11.20;93.10;;;;;;4981709;28;20452;-69
2021/05/04 09:47:22;;;;;;;1.50;1.00;;;11.20;93.50;;;;;;5021129;28;20232;-70
2021/05/04 09:49:48;;;;;;;1.23;1.10;;;11.20;93.40;;;;;;5013858;28;20477;-70
2021/05/04 09:52:29;;;;;;;1.40;1.30;;;11.20;93.60;;;;;;5031200;28;20467;-69
2021/05/04 09:55:10;;;;;;;1.43;1.33;;;11.20;93.40;;;;;;5015523;28;20486;-69
2021/05/04 09:57:38;;;;;;;1.67;1.30;;;11.20;93.70;;;;;;5030912;28;20458;-69
2021/05/04 10:00:14;;;;;;;1.50;1.17;;;11.20;93.70;;;;;;5035660;28;20453;-70
2021/05/04 10:02:41;;;;;;;3.00;1.50;;;11.20;93.80;;;;;;5014492;28;20978;-69
2021/05/04 10:05:09;;;;;;;1.33;1.10;;;11.20;93.60;;;;;;5047502;28;20465;-69
2021/05/04 10:07:37;;;;;;;1.20;1.10;;;11.20;93.90;;;;;;5057543;28;20457;-70
2021/05/04 10:10:04;;;;;;;1.53;1.43;;;11.20;93.90;;;;;;5039064;28;20465;-70
2021/05/04 10:12:30;;;;;;;1.17;1.07;;;11.30;93.90;;;;;;5038600;28;20477;-69
2021/05/04 10:15:02;;;;;;;1.37;1.27;;;11.20;94.20;;;;;;5067955;28;21027;-69
2021/05/04 10:17:31;;;;;;;1.37;1.27;;;11.10;94.20;;;;;;5032729;28;20234;-70
2021/05/04 10:19:57;;;;;;;1.60;1.50;;;11.20;94.40;;;;;;5068075;28;20454;-73
2021/05/04 10:22:28;;;;;;;1.50;1.40;;;11.20;94.60;;;;;;5078356;28;20507;-69
2021/05/04 10:24:54;;;;;;;1.67;1.57;;;11.20;94.40;;;;;;5071157;28;20456;-69
2021/05/04 10:27:21;;;;;;;2.00;1.40;;;11.20;94.60;;;;;;5074746;28;20656;-70
2021/05/04 10:29:53;;;;;;;1.50;1.40;;;11.20;94.70;;;;;;5059811;28;20448;-70
2021/05/04 10:32:54;;;;;;;1.20;1.10;;;11.20;94.90;;;;;;5033081;28;20461;-69
2021/05/04 10:35:29;;;;;;;1.87;1.77;;;11.10;94.90;;;;;;5047146;28;20449;-69
2021/05/04 10:38:08;;;;;;;1.83;1.73;;;11.10;95.40;;;;;;5074553;28;20566;-70
2021/05/04 10:40:37;;;;;;;1.63;1.53;;;11.10;95.50;;;;;;5074511;28;20444;-69
2021/05/04 10:43:21;;;;;;;1.63;1.53;;;11.10;95.70;;;;;;5065837;28;20464;-70
2021/05/04 10:45:52;;;;;;;2.00;1.47;;;11.10;95.90;;;;;;5087194;28;20461;-70
2021/05/04 10:48:35;;;;;;;2.17;1.50;;;11.10;95.90;;;;;;5073983;28;20537;-70
2021/05/04 10:51:01;;;;;;;1.73;1.40;;;11.20;96.20;;;;;;5092367;28;20491;-70
2021/05/04 10:54:01;;;;;;;1.47;1.37;;;11.20;96.00;;;;;;5060626;28;20473;-70
2021/05/04 10:56:44;;;;;;;1.90;1.47;;;11.30;96.10;;;;;;5073785;28;20445;-70
2021/05/04 10:59:25;;;;;;;1.70;1.50;;;11.30;96.10;;;;;;5057238;28;20487;-69
2021/05/04 11:02:09;;;;;;;0.90;0.90;;;11.30;96.30;;;;;;5050379;28;20869;-69
2021/05/04 11:04:39;;;;;;;1.20;1.20;;;11.30;96.20;;;;;;5051260;28;20468;-69
2021/05/04 11:07:05;;;;;;;1.60;1.50;;;11.30;96.50;;;;;;5065007;28;20469;-69
2021/05/04 11:09:31;;;;;;;1.47;1.30;;;11.40;96.40;;;;;;5068972;28;20465;-69
2021/05/04 11:11:57;;;;;;;1.37;1.27;;;11.40;96.30;;;;;;5072305;28;20239;-72
2021/05/04 11:14:25;;;;;;;1.40;1.30;;;11.40;96.20;;;;;;5068260;28;23654;-69
2021/05/04 11:16:56;;;;;;;1.40;1.30;;;11.50;96.50;;;;;;5018077;28;20481;-69
2021/05/04 11:21:59;;;;;;;1.50;1.40;;;11.40;96.60;;;;;;5055159;28;20461;-70
2021/05/04 11:24:34;;;;;;;1.83;1.40;;;11.50;96.60;;;;;;5073755;28;20460;-70
2021/05/04 11:27:06;;;;;;;1.17;1.10;;;11.50;96.60;;;;;;5074753;28;20517;-69
2021/05/04 11:29:31;;;;;;;1.63;1.53;;;11.50;96.70;;;;;;5042845;28;20987;-70
2021/05/04 11:32:11;;;;;;;2.63;2.33;;;11.50;96.70;;;;;;5089994;28;20464;-70
2021/05/04 11:34:39;;;;;;;1.90;1.80;;;11.60;96.90;;;;;;5043197;28;20313;-70
2021/05/04 11:37:10;;;;;;;1.87;1.77;;;11.60;97.00;;;;;;5077359;28;20461;-69
2021/05/04 11:39:49;;;;;;;2.00;1.90;;;11.60;96.90;;;;;;5036446;28;20437;-70
2021/05/04 11:42:14;;;;;;;1.83;1.73;;;11.70;97.00;;;;;;5077933;28;21037;-72
2021/05/04 11:44:40;;;;;;;3.50;2.57;;;11.70;97.00;;;;;;5067968;28;20457;-69
2021/05/04 11:47:18;;;;;;;2.70;2.50;;;11.70;96.90;;;;;;5103742;28;20311;-70
2021/05/04 11:49:45;;;;;;;3.60;3.30;;;11.80;96.60;;;;;;5075852;28;20218;-69
2021/05/04 11:52:13;;;;;;;8.73;7.17;;;11.80;96.70;;;;;;5052122;28;20945;-69
2021/05/04 11:54:39;;;;;;;28.47;15.30;;;11.80;96.70;;;;;;5036676;28;20465;-69
2021/05/04 11:57:05;;;;;;;12.13;8.70;;;11.80;96.70;;;;;;5075458;28;20472;-69
2021/05/04 11:59:31;;;;;;;3.53;3.23;;;11.80;96.70;;;;;;5049181;28;20457;-69
2021/05/04 12:01:57;;;;;;;1.93;1.83;;;11.80;96.70;;;;;;5037094;28;20465;-69
2021/05/04 12:04:47;;;;;;;6.33;3.60;;;11.80;96.60;;;;;;5052760;28;20268;-70
2021/05/04 12:07:13;;;;;;;8.33;5.37;;;11.90;96.70;;;;;;5058161;28;20302;-69
2021/05/04 12:09:39;;;;;;;14.17;9.20;;;11.90;96.80;;;;;;5031914;28;20460;-69
2021/05/04 12:12:14;;;;;;;25.50;13.67;;;12.00;96.90;;;;;;5071798;28;20452;-72
2021/05/04 12:14:59;;;;;;;21.00;12.20;;;12.00;96.80;;;;;;5058525;28;20232;-69
2021/05/04 12:17:28;;;;;;;7.53;5.90;;;12.10;97.00;;;;;;5050970;28;20463;-69
2021/05/04 12:20:07;;;;;;;2.80;2.53;;;12.10;97.00;;;;;;5079807;28;20506;-69
2021/05/04 12:23:07;;;;;;;18.07;11.50;;;12.10;96.90;;;;;;5054534;28;20449;-70
2021/05/04 12:25:53;;;;;;;16.27;11.03;;;12.20;96.90;;;;;;5027842;28;20532;-71
2021/05/04 12:28:25;;;;;;;26.90;19.57;;;12.20;96.70;;;;;;5045702;28;20460;-70
2021/05/04 12:30:58;;;;;;;22.47;15.50;;;12.20;96.80;;;;;;5062388;28;20483;-69
2021/05/04 12:33:24;;;;;;;10.13;8.03;;;12.30;96.80;;;;;;5035702;28;20807;-70
2021/05/04 12:36:03;;;;;;;8.93;6.00;;;12.30;96.90;;;;;;5039958;28;20468;-69
2021/05/04 12:38:54;;;;;;;6.77;4.43;;;12.30;97.00;;;;;;5066928;28;20219;-70
2021/05/04 12:41:22;;;;;;;5.00;3.90;;;12.40;96.80;;;;;;5033726;28;20470;-69
2021/05/04 12:44:09;;;;;;;2.73;2.43;;;12.40;97.00;;;;;;5049336;28;20514;-71
2021/05/04 12:46:39;;;;;;;4.00;2.07;;;12.60;97.10;;;;;;5035589;28;20454;-69
2021/05/04 12:49:05;;;;;;;8.37;6.00;;;12.80;97.20;;;;;;5027763;28;20525;-71
2021/05/04 12:51:32;;;;;;;21.10;10.37;;;12.90;97.20;;;;;;4983380;28;20466;-69
2021/05/04 12:54:20;;;;;;;12.97;6.70;;;13.00;97.10;;;;;;5030163;28;20219;-70
2021/05/04 12:56:48;;;;;;;18.00;9.60;;;13.10;97.00;;;;;;5048811;28;20449;-70
2021/05/04 12:59:28;;;;;;;6.57;5.30;;;13.20;96.40;;;;;;5043098;28;21036;-70
2021/05/04 13:01:55;;;;;;;6.00;4.57;;;13.20;96.20;;;;;;5064313;28;20481;-70
2021/05/04 13:04:47;;;;;;;3.03;2.53;;;13.30;96.30;;;;;;5059661;28;20818;-70